createdAt,value
2022-10-10T00:01:01.006Z,363.37
2022-10-10T00:06:08.174Z,363.30
2022-10-10T00:11:15.356Z,363.42
2022-10-10T00:16:22.581Z,362.88
2022-10-10T00:21:29.809Z,363.30
2022-10-10T00:26:37.034Z,363.75
2022-10-10T00:31:44.201Z,363.81
2022-10-10T00:36:51.410Z,363.70
2022-10-10T00:41:58.598Z,363.90
2022-10-10T00:47:05.740Z,364.17
2022-10-10T00:52:12.929Z,363.78
2022-10-10T00:57:20.154Z,364.04
2022-10-10T01:02:27.329Z,363.42
2022-10-10T01:07:34.626Z,363.68
2022-10-10T01:12:41.881Z,363.97
2022-10-10T01:17:49.054Z,363.85
2022-10-10T01:22:56.460Z,364.00
2022-10-10T01:28:04.085Z,363.85
2022-10-10T01:33:11.128Z,364.30
2022-10-10T01:38:18.328Z,364.46
2022-10-10T01:43:25.596Z,364.49
2022-10-10T01:48:33.056Z,364.26
2022-10-10T01:53:41.641Z,364.33
2022-10-10T01:58:48.960Z,364.62
2022-10-10T02:03:56.216Z,364.83
2022-10-10T02:09:03.435Z,364.68
2022-10-10T02:14:10.673Z,364.94
2022-10-10T02:19:18.068Z,364.70
2022-10-10T02:24:25.337Z,364.86
2022-10-10T02:29:32.613Z,365.06
2022-10-10T02:34:39.790Z,365.06
2022-10-10T02:39:47.016Z,365.02
2022-10-10T02:44:54.300Z,365.08
2022-10-10T02:50:01.633Z,364.92
2022-10-10T02:55:08.948Z,364.84
2022-10-10T03:00:16.181Z,364.91
2022-10-10T03:05:23.416Z,364.78
2022-10-10T03:10:30.620Z,364.71
2022-10-10T03:15:37.897Z,364.49
2022-10-10T03:20:45.091Z,364.69
2022-10-10T03:25:52.354Z,364.56
2022-10-10T03:30:59.643Z,365.05
2022-10-10T03:36:06.883Z,364.77
2022-10-10T03:41:14.152Z,364.98
2022-10-10T03:46:21.452Z,364.96
2022-10-10T03:51:28.784Z,364.82
2022-10-10T03:56:36.032Z,364.84
2022-10-10T04:01:43.341Z,364.09
2022-10-10T04:06:50.601Z,364.36
2022-10-10T04:11:57.817Z,364.31
2022-10-10T04:17:05.053Z,364.50
2022-10-10T04:22:12.297Z,364.04
2022-10-10T04:27:19.505Z,364.52
2022-10-10T04:32:26.755Z,364.95
2022-10-10T04:37:33.914Z,364.93
2022-10-10T04:42:42.143Z,365.05
2022-10-10T04:47:49.369Z,365.02
2022-10-10T04:52:56.556Z,365.77
2022-10-10T04:58:03.750Z,365.64
2022-10-10T05:03:11.001Z,365.22
2022-10-10T05:08:18.167Z,365.62
2022-10-10T05:13:25.375Z,365.45
2022-10-10T05:18:32.592Z,365.21
2022-10-10T05:23:39.791Z,365.03
2022-10-10T05:28:47.108Z,365.32
2022-10-10T05:33:54.307Z,364.56
2022-10-10T05:39:01.527Z,364.49
2022-10-10T05:44:08.706Z,364.46
2022-10-10T05:49:15.944Z,364.11
2022-10-10T05:54:23.106Z,363.90
2022-10-10T05:59:30.323Z,363.77
2022-10-10T06:04:37.563Z,363.30
2022-10-10T06:09:44.695Z,362.53
2022-10-10T06:14:51.918Z,362.91
2022-10-10T06:19:59.169Z,362.67
2022-10-10T06:25:15.259Z,362.50
2022-10-10T06:30:13.652Z,361.65
2022-10-10T06:35:20.873Z,361.40
2022-10-10T06:40:28.079Z,361.14
2022-10-10T06:45:35.324Z,360.40
2022-10-10T06:50:42.598Z,360.47
2022-10-10T06:55:49.775Z,360.16
2022-10-10T07:00:56.987Z,359.93
2022-10-10T07:06:04.171Z,359.89
2022-10-10T07:11:11.408Z,359.30
2022-10-10T07:16:18.772Z,358.84
2022-10-10T07:21:26.067Z,358.73
2022-10-10T07:26:33.354Z,358.62
2022-10-10T07:31:40.525Z,358.15
2022-10-10T07:36:47.756Z,357.78
2022-10-10T07:41:54.990Z,357.92
2022-10-10T07:47:02.283Z,357.34
2022-10-10T07:52:09.577Z,357.27
2022-10-10T07:57:16.778Z,357.38
2022-10-10T08:02:23.979Z,357.42
2022-10-10T08:07:31.188Z,357.10
2022-10-10T08:12:38.357Z,357.10
2022-10-10T08:17:45.512Z,357.41
2022-10-10T08:22:53.008Z,357.39
2022-10-10T08:27:59.843Z,357.26
2022-10-10T08:33:07.071Z,357.10
2022-10-10T08:38:14.293Z,357.07
2022-10-10T08:43:21.506Z,356.69
2022-10-10T08:48:28.689Z,356.69
2022-10-10T08:53:35.939Z,357.05
2022-10-10T08:58:43.116Z,356.77
2022-10-10T09:03:50.319Z,356.41
2022-10-10T09:08:57.583Z,356.75
2022-10-10T09:14:04.802Z,356.23
2022-10-10T09:19:14.730Z,356.43
2022-10-10T09:24:19.344Z,356.14
2022-10-10T09:29:26.428Z,356.80
2022-10-10T09:34:33.652Z,356.30
2022-10-10T09:39:40.880Z,356.58
2022-10-10T09:44:48.043Z,355.63
2022-10-10T09:49:55.271Z,355.88
2022-10-10T09:55:02.475Z,355.64
2022-10-10T10:00:09.659Z,355.69
2022-10-10T10:05:16.886Z,355.84
2022-10-10T10:10:24.194Z,356.08
2022-10-10T10:15:31.272Z,355.90
2022-10-10T10:20:38.472Z,355.65
2022-10-10T10:25:45.698Z,355.51
2022-10-10T10:30:53.034Z,355.65
2022-10-10T10:36:00.741Z,355.33
2022-10-10T10:41:07.532Z,355.12
2022-10-10T10:46:14.679Z,355.02
2022-10-10T10:51:21.911Z,355.02
2022-10-10T10:56:29.145Z,355.24
2022-10-10T11:01:56.392Z,355.72
2022-10-10T11:06:54.258Z,355.78
2022-10-10T11:11:50.768Z,356.13
2022-10-10T11:16:57.925Z,355.97
2022-10-10T11:22:05.165Z,356.13
2022-10-10T11:27:12.378Z,356.99
2022-10-10T11:37:26.777Z,357.11
2022-10-10T11:42:34.122Z,357.39
2022-10-10T11:47:41.164Z,357.30
2022-10-10T11:52:48.368Z,357.21
2022-10-10T11:57:55.593Z,357.99
2022-10-10T12:03:02.765Z,358.10
2022-10-10T12:08:11.520Z,358.03
2022-10-10T12:13:17.238Z,358.08
2022-10-10T12:18:24.363Z,358.47
2022-10-10T12:23:31.590Z,358.86
2022-10-10T12:28:41.079Z,358.88
2022-10-10T12:33:48.151Z,358.44
2022-10-10T12:39:00.641Z,358.79
2022-10-10T12:44:04.300Z,359.29
2022-10-10T12:49:11.463Z,359.47
2022-10-10T12:54:19.124Z,359.87
2022-10-10T12:59:26.388Z,359.63
2022-10-10T13:04:33.525Z,359.87
2022-10-10T13:09:40.742Z,359.40
2022-10-10T13:14:47.963Z,359.63
2022-10-10T13:19:58.720Z,359.58
2022-10-10T13:25:05.989Z,359.67
2022-10-10T13:30:13.263Z,359.29
2022-10-10T13:35:20.563Z,359.46
2022-10-10T13:40:27.757Z,358.83
2022-10-10T13:45:34.972Z,358.75
2022-10-10T13:50:42.157Z,358.57
2022-10-10T13:55:49.331Z,358.07
2022-10-10T14:00:56.609Z,358.21
2022-10-10T14:06:03.760Z,358.13
2022-10-10T14:11:10.986Z,358.62
2022-10-10T14:16:18.243Z,358.59
2022-10-10T14:21:25.445Z,358.72
2022-10-10T14:26:32.584Z,358.44
2022-10-10T14:31:40.642Z,358.56
2022-10-10T14:36:47.840Z,358.76
2022-10-10T14:41:55.003Z,357.80
2022-10-10T14:47:02.254Z,358.20
2022-10-10T14:52:09.490Z,358.34
2022-10-10T14:57:16.670Z,358.45
2022-10-10T15:02:23.867Z,358.44
2022-10-10T15:07:31.049Z,358.92
2022-10-10T15:12:38.223Z,358.87
2022-10-10T15:17:45.470Z,359.36
2022-10-10T15:22:52.666Z,359.59
2022-10-10T15:27:59.873Z,358.91
2022-10-10T15:33:07.128Z,359.54
2022-10-10T15:38:14.336Z,359.39
2022-10-10T15:43:21.601Z,358.59
2022-10-10T15:48:28.847Z,358.79
2022-10-10T15:53:36.058Z,359.01
2022-10-10T15:58:43.231Z,358.75
2022-10-10T16:03:50.432Z,358.56
2022-10-10T16:09:16.420Z,358.64
2022-10-10T16:14:04.818Z,358.29
2022-10-10T16:19:12.046Z,358.08
2022-10-10T16:24:19.224Z,357.30
2022-10-10T16:29:26.436Z,357.10
2022-10-10T16:34:33.623Z,356.84
2022-10-10T16:39:40.831Z,357.18
2022-10-10T16:44:48.038Z,356.53
2022-10-10T16:49:55.249Z,356.34
2022-10-10T16:55:02.449Z,356.42
2022-10-10T17:00:09.654Z,355.91
2022-10-10T17:05:16.894Z,355.10
2022-10-10T17:10:24.166Z,354.69
2022-10-10T17:15:31.370Z,354.14
2022-10-10T17:20:38.600Z,353.48
2022-10-10T17:25:45.862Z,352.50
2022-10-10T17:30:53.102Z,351.77
2022-10-10T17:36:00.339Z,350.89
2022-10-10T17:41:07.502Z,350.99
2022-10-10T17:46:33.646Z,350.99
2022-10-10T17:51:21.984Z,350.29
2022-10-10T17:56:29.197Z,349.73
2022-10-10T18:01:36.510Z,349.39
2022-10-10T18:06:43.569Z,349.44
2022-10-10T18:11:50.725Z,348.40
2022-10-10T18:16:57.899Z,348.19
2022-10-10T18:22:05.188Z,348.02
2022-10-10T18:27:12.377Z,347.76
2022-10-10T18:32:19.844Z,347.99
2022-10-10T18:37:27.212Z,347.67
2022-10-10T18:42:34.664Z,347.71
2022-10-10T18:47:42.279Z,347.53
2022-10-10T18:52:49.718Z,347.12
2022-10-10T18:57:56.954Z,347.21
2022-10-10T19:03:04.217Z,347.05
2022-10-10T19:08:11.441Z,347.12
2022-10-10T19:13:18.623Z,346.90
2022-10-10T19:18:25.776Z,346.31
2022-10-10T19:23:33.053Z,345.76
2022-10-10T19:28:40.307Z,345.69
2022-10-10T19:33:47.541Z,346.30
2022-10-10T19:38:54.743Z,346.33
2022-10-10T19:44:01.909Z,346.26
2022-10-10T19:49:09.076Z,346.02
2022-10-10T19:54:18.745Z,345.52
2022-10-10T19:59:25.932Z,344.73
2022-10-10T20:04:33.117Z,343.97
2022-10-10T20:09:40.351Z,343.75
2022-10-10T20:14:47.539Z,343.72
2022-10-10T20:19:54.808Z,343.46
2022-10-10T20:25:02.039Z,342.71
2022-10-10T20:30:09.253Z,343.14
2022-10-10T20:35:16.736Z,342.92
2022-10-10T20:40:23.994Z,342.04
2022-10-10T20:45:31.168Z,341.47
2022-10-10T20:50:38.371Z,341.35
2022-10-10T20:55:45.576Z,340.76
2022-10-10T21:00:52.822Z,340.74
2022-10-10T21:06:00.045Z,341.10
2022-10-10T21:11:07.326Z,340.51
2022-10-10T21:16:14.552Z,339.71
2022-10-10T21:21:21.809Z,339.50
2022-10-10T21:26:29.008Z,339.01
2022-10-10T21:31:36.292Z,339.30
2022-10-10T21:36:43.552Z,338.28
2022-10-10T21:41:50.759Z,338.23
2022-10-10T21:46:57.948Z,337.75
2022-10-10T21:52:05.218Z,337.34
2022-10-10T21:57:12.479Z,337.21
2022-10-10T22:02:19.678Z,337.11
2022-10-10T22:07:26.865Z,337.52
2022-10-10T22:12:34.074Z,337.10
2022-10-10T22:17:41.287Z,337.31
2022-10-10T22:22:48.487Z,336.84
2022-10-10T22:27:57.354Z,337.19
2022-10-10T22:33:02.912Z,337.46
2022-10-10T22:38:10.151Z,337.43
2022-10-10T22:43:17.434Z,336.33
2022-10-10T22:48:24.594Z,336.94
2022-10-10T22:53:31.831Z,336.17
2022-10-10T22:58:39.053Z,335.55
2022-10-10T23:03:46.266Z,334.73
2022-10-10T23:08:53.435Z,334.24
2022-10-10T23:14:00.721Z,333.51
2022-10-10T23:19:07.825Z,334.88
2022-10-10T23:24:15.015Z,336.65
2022-10-10T23:29:22.253Z,336.71
2022-10-10T23:34:29.450Z,336.12
2022-10-10T23:39:36.699Z,335.80
2022-10-10T23:44:43.963Z,334.95
2022-10-10T23:49:51.089Z,334.42
2022-10-10T23:54:58.260Z,333.77
